createdAt,value
2022-10-18T00:00:18.586Z,55.79
2022-10-18T00:00:49.025Z,55.87
2022-10-18T00:01:19.471Z,55.77
2022-10-18T00:01:49.934Z,55.77
2022-10-18T00:02:20.453Z,55.77
2022-10-18T00:02:50.875Z,55.87
2022-10-18T00:03:21.319Z,55.79
2022-10-18T00:03:51.754Z,55.77
2022-10-18T00:04:22.176Z,55.77
2022-10-18T00:04:52.599Z,55.77
2022-10-18T00:05:23.019Z,55.87
2022-10-18T00:05:53.463Z,55.89
2022-10-18T00:06:23.885Z,55.77
2022-10-18T00:06:54.310Z,55.77
2022-10-18T00:07:24.738Z,55.79
2022-10-18T00:07:55.157Z,55.77
2022-10-18T00:08:25.578Z,55.89
2022-10-18T00:08:56.005Z,55.89
2022-10-18T00:09:26.440Z,55.79
2022-10-18T00:09:56.889Z,55.89
2022-10-18T00:10:27.332Z,55.79
2022-10-18T00:10:57.773Z,55.77
2022-10-18T00:11:28.197Z,55.79
2022-10-18T00:11:58.640Z,55.77
2022-10-18T00:12:29.057Z,55.79
2022-10-18T00:12:59.495Z,55.77
2022-10-18T00:13:29.915Z,55.79
2022-10-18T00:14:00.339Z,55.77
2022-10-18T00:14:30.761Z,55.77
2022-10-18T00:15:01.186Z,55.77
2022-10-18T00:15:31.613Z,55.77
2022-10-18T00:16:02.062Z,55.79
2022-10-18T00:16:32.484Z,55.77
2022-10-18T00:17:02.905Z,55.79
2022-10-18T00:17:33.559Z,55.79
2022-10-18T00:18:04.117Z,55.77
2022-10-18T00:18:34.546Z,55.79
2022-10-18T00:19:04.967Z,55.77
2022-10-18T00:19:35.413Z,55.79
2022-10-18T00:20:05.812Z,55.77
2022-10-18T00:20:36.227Z,55.77
2022-10-18T00:21:06.666Z,55.79
2022-10-18T00:21:37.127Z,55.77
2022-10-18T00:22:07.523Z,55.79
2022-10-18T00:22:37.953Z,55.77
2022-10-18T00:23:08.372Z,55.79
2022-10-18T00:23:38.804Z,55.79
2022-10-18T00:24:09.227Z,55.89
2022-10-18T00:24:39.649Z,55.89
2022-10-18T00:25:10.071Z,55.79
2022-10-18T00:25:40.516Z,55.89
2022-10-18T00:26:10.930Z,55.79
2022-10-18T00:26:41.359Z,55.79
2022-10-18T00:27:11.790Z,55.77
2022-10-18T00:27:42.219Z,55.79
2022-10-18T00:28:12.636Z,55.77
2022-10-18T00:28:43.094Z,55.79
2022-10-18T00:29:13.503Z,55.79
2022-10-18T00:29:43.923Z,55.79
2022-10-18T00:30:14.351Z,55.79
2022-10-18T00:30:44.797Z,55.69
2022-10-18T00:31:15.243Z,55.79
2022-10-18T00:31:45.667Z,55.79
2022-10-18T00:32:16.111Z,55.79
2022-10-18T00:32:46.573Z,55.79
2022-10-18T00:33:17.003Z,55.79
2022-10-18T00:33:47.431Z,55.77
2022-10-18T00:34:17.860Z,55.79
2022-10-18T00:34:48.283Z,55.79
2022-10-18T00:35:18.710Z,55.77
2022-10-18T00:35:49.133Z,55.77
2022-10-18T00:36:19.565Z,55.79
2022-10-18T00:36:49.996Z,55.79
2022-10-18T00:37:20.420Z,55.79
2022-10-18T00:37:50.841Z,55.79
2022-10-18T00:38:21.266Z,55.79
2022-10-18T00:38:51.691Z,55.79
2022-10-18T00:39:22.116Z,55.79
2022-10-18T00:40:22.912Z,55.79
2022-10-18T00:40:53.356Z,55.79
2022-10-18T00:41:23.766Z,55.79
2022-10-18T00:41:54.188Z,55.79
2022-10-18T00:42:24.611Z,55.79
2022-10-18T00:42:55.041Z,55.79
2022-10-18T00:43:25.481Z,55.79
2022-10-18T00:43:55.909Z,55.79
2022-10-18T00:44:26.339Z,55.79
2022-10-18T00:44:56.752Z,55.79
2022-10-18T00:45:27.176Z,55.79
2022-10-18T00:45:57.599Z,55.89
2022-10-18T00:46:28.204Z,55.79
2022-10-18T00:46:58.626Z,55.89
2022-10-18T00:47:29.058Z,55.79
2022-10-18T00:47:59.483Z,55.79
2022-10-18T00:48:29.912Z,55.69
2022-10-18T00:49:00.354Z,55.69
2022-10-18T00:49:30.769Z,55.79
2022-10-18T00:50:01.192Z,55.79
2022-10-18T00:50:31.617Z,55.79
2022-10-18T00:51:02.036Z,55.79
2022-10-18T00:51:32.471Z,55.79
2022-10-18T00:52:02.910Z,55.79
2022-10-18T00:52:33.813Z,55.89
2022-10-18T00:53:04.374Z,55.89
2022-10-18T00:53:34.849Z,55.89
2022-10-18T00:54:05.278Z,55.89
2022-10-18T00:54:35.700Z,55.89
2022-10-18T00:55:06.127Z,55.89
2022-10-18T00:55:36.551Z,55.89
2022-10-18T00:56:06.993Z,55.79
2022-10-18T00:56:37.404Z,55.89
2022-10-18T00:57:07.845Z,55.89
2022-10-18T00:57:38.259Z,55.79
2022-10-18T00:58:08.679Z,55.79
2022-10-18T00:58:39.107Z,55.89
2022-10-18T00:59:09.526Z,55.79
2022-10-18T00:59:39.948Z,55.79
2022-10-18T01:00:10.370Z,55.79
2022-10-18T01:00:40.791Z,55.89
2022-10-18T01:01:11.257Z,55.89
2022-10-18T01:01:41.762Z,55.89
2022-10-18T01:02:12.223Z,55.89
2022-10-18T01:02:42.620Z,55.89
2022-10-18T01:03:13.041Z,55.79
2022-10-18T01:03:43.479Z,55.79
2022-10-18T01:04:13.901Z,55.79
2022-10-18T01:04:44.335Z,55.79
2022-10-18T01:05:14.758Z,55.79
2022-10-18T01:05:45.185Z,55.79
2022-10-18T01:06:15.613Z,55.79
2022-10-18T01:06:46.084Z,55.89
2022-10-18T01:07:16.481Z,55.89
2022-10-18T01:07:46.900Z,55.99
2022-10-18T01:08:17.341Z,55.99
2022-10-18T01:08:47.765Z,55.89
2022-10-18T01:09:18.205Z,55.89
2022-10-18T01:09:48.629Z,55.89
2022-10-18T01:10:19.074Z,55.79
2022-10-18T01:10:49.476Z,55.89
2022-10-18T01:11:19.918Z,55.89
2022-10-18T01:11:50.342Z,55.89
2022-10-18T01:12:20.766Z,55.89
2022-10-18T01:12:51.225Z,55.89
2022-10-18T01:13:24.861Z,55.79
2022-10-18T01:13:56.250Z,55.79
2022-10-18T01:14:26.674Z,55.89
2022-10-18T01:14:57.117Z,55.89
2022-10-18T01:15:27.534Z,55.89
2022-10-18T01:15:57.964Z,55.89
2022-10-18T01:16:28.382Z,55.89
2022-10-18T01:16:58.814Z,55.99
2022-10-18T01:17:29.603Z,55.89
2022-10-18T01:18:00.138Z,55.89
2022-10-18T01:18:30.558Z,55.89
2022-10-18T01:19:00.981Z,55.99
2022-10-18T01:19:31.422Z,55.89
2022-10-18T01:20:01.829Z,55.89
2022-10-18T01:20:32.262Z,55.89
2022-10-18T01:21:02.682Z,55.89
2022-10-18T01:21:33.102Z,55.89
2022-10-18T01:22:03.544Z,55.89
2022-10-18T01:22:33.970Z,55.89
2022-10-18T01:23:04.388Z,55.89
2022-10-18T01:23:34.823Z,55.89
2022-10-18T01:24:05.239Z,55.89
2022-10-18T01:24:35.686Z,55.79
2022-10-18T01:25:06.149Z,55.89
2022-10-18T01:25:36.554Z,55.89
2022-10-18T01:26:06.980Z,55.89
2022-10-18T01:26:37.437Z,55.89
2022-10-18T01:27:07.854Z,55.89
2022-10-18T01:27:38.282Z,55.79
2022-10-18T01:28:08.714Z,55.89
2022-10-18T01:28:39.223Z,55.89
2022-10-18T01:29:09.618Z,55.89
2022-10-18T01:29:40.037Z,55.89
2022-10-18T01:30:10.467Z,55.89
2022-10-18T01:30:40.885Z,55.89
2022-10-18T01:31:11.307Z,55.89
2022-10-18T01:31:41.727Z,55.89
2022-10-18T01:32:12.162Z,55.99
2022-10-18T01:32:42.601Z,55.89
2022-10-18T01:33:13.033Z,55.79
2022-10-18T01:33:43.458Z,55.89
2022-10-18T01:34:13.884Z,55.89
2022-10-18T01:34:44.304Z,55.89
2022-10-18T01:35:14.727Z,55.99
2022-10-18T01:35:45.150Z,55.89
2022-10-18T01:36:15.570Z,55.89
2022-10-18T01:36:46.012Z,55.89
2022-10-18T01:37:16.441Z,55.99
2022-10-18T01:37:46.867Z,55.89
2022-10-18T01:38:17.286Z,55.99
2022-10-18T01:38:47.712Z,55.99
2022-10-18T01:39:18.133Z,55.99
2022-10-18T01:39:48.554Z,56.09
2022-10-18T01:40:18.997Z,55.89
2022-10-18T01:40:49.419Z,55.89
2022-10-18T01:41:19.845Z,55.99
2022-10-18T01:41:50.291Z,55.99
2022-10-18T01:42:20.720Z,55.89
2022-10-18T01:42:51.135Z,55.89
2022-10-18T01:43:21.567Z,55.89
2022-10-18T01:43:51.990Z,55.89
2022-10-18T01:44:22.424Z,55.89
2022-10-18T01:44:52.862Z,55.89
2022-10-18T01:45:23.283Z,55.89
2022-10-18T01:45:53.714Z,55.89
2022-10-18T01:46:24.139Z,55.99
2022-10-18T01:46:54.569Z,55.89
2022-10-18T01:47:25.017Z,55.89
2022-10-18T01:47:55.442Z,55.89
2022-10-18T01:48:25.874Z,55.89
2022-10-18T01:48:56.326Z,55.89
2022-10-18T01:49:26.754Z,55.89
2022-10-18T01:49:57.184Z,55.89
2022-10-18T01:50:27.609Z,55.89
2022-10-18T01:50:58.040Z,55.89
2022-10-18T01:51:28.460Z,55.99
2022-10-18T01:51:58.972Z,55.89
2022-10-18T01:52:29.669Z,55.99
2022-10-18T01:53:00.154Z,55.89
2022-10-18T01:53:30.580Z,55.89
2022-10-18T01:54:01.006Z,55.89
2022-10-18T01:54:31.433Z,55.89
2022-10-18T01:55:02.111Z,55.99
2022-10-18T01:55:32.721Z,55.99
2022-10-18T01:56:03.169Z,55.99
2022-10-18T01:56:33.602Z,55.99
2022-10-18T01:57:04.046Z,56.20
2022-10-18T01:57:34.474Z,55.99
2022-10-18T01:58:04.897Z,55.99
2022-10-18T01:58:35.319Z,55.99
2022-10-18T01:59:05.742Z,55.99
2022-10-18T01:59:36.184Z,55.99
2022-10-18T02:00:06.604Z,55.99
2022-10-18T02:00:37.043Z,55.99
2022-10-18T02:01:07.501Z,55.99
2022-10-18T02:01:37.878Z,56.09
2022-10-18T02:02:08.311Z,56.09
2022-10-18T02:02:38.741Z,56.09
2022-10-18T02:03:09.163Z,55.99
2022-10-18T02:03:39.592Z,55.99
2022-10-18T02:04:10.010Z,55.99
2022-10-18T02:04:40.442Z,55.89
2022-10-18T02:05:10.874Z,55.99
2022-10-18T02:05:41.315Z,55.99
2022-10-18T02:06:11.738Z,55.99
2022-10-18T02:06:42.169Z,55.99
2022-10-18T02:07:12.599Z,55.99
2022-10-18T02:07:43.035Z,55.99
2022-10-18T02:08:22.875Z,55.99
2022-10-18T02:08:48.798Z,55.99
2022-10-18T02:09:19.227Z,55.99
2022-10-18T02:09:49.673Z,55.99
2022-10-18T02:10:20.124Z,55.99
2022-10-18T02:10:50.538Z,55.99
2022-10-18T02:11:20.967Z,55.99
2022-10-18T02:11:51.395Z,56.09
2022-10-18T02:12:21.841Z,56.09
2022-10-18T02:12:52.254Z,56.09
2022-10-18T02:13:22.676Z,55.99
2022-10-18T02:13:53.113Z,55.99
2022-10-18T02:14:23.524Z,55.99
2022-10-18T02:14:53.945Z,55.99
2022-10-18T02:15:24.377Z,55.99
2022-10-18T02:15:54.799Z,55.99
2022-10-18T02:16:25.221Z,56.09
2022-10-18T02:16:55.656Z,55.99
2022-10-18T02:17:26.067Z,56.09
2022-10-18T02:17:56.504Z,55.99
2022-10-18T02:18:26.926Z,55.99
2022-10-18T02:18:57.358Z,56.09
2022-10-18T02:19:27.780Z,56.20
2022-10-18T02:19:58.203Z,56.09
2022-10-18T02:20:28.619Z,56.09
2022-10-18T02:20:59.041Z,56.09
2022-10-18T02:21:29.470Z,56.09
2022-10-18T02:21:59.897Z,55.99
2022-10-18T02:22:30.648Z,56.09
2022-10-18T02:23:01.302Z,56.09
2022-10-18T02:23:31.721Z,55.99
2022-10-18T02:24:02.157Z,55.99
2022-10-18T02:24:32.572Z,56.09
2022-10-18T02:25:02.993Z,56.09
2022-10-18T02:25:33.423Z,56.09
2022-10-18T02:26:03.853Z,56.09
2022-10-18T02:26:34.277Z,56.09
2022-10-18T02:27:04.697Z,56.20
2022-10-18T02:27:35.191Z,56.09
2022-10-18T02:28:05.596Z,55.99
2022-10-18T02:28:36.020Z,56.09
2022-10-18T02:29:06.448Z,56.09
2022-10-18T02:29:36.871Z,56.09
2022-10-18T02:30:07.311Z,56.09
2022-10-18T02:30:37.751Z,56.09
2022-10-18T02:31:08.190Z,56.09
2022-10-18T02:31:38.602Z,56.09
2022-10-18T02:32:09.027Z,56.09
2022-10-18T02:32:39.448Z,56.09
2022-10-18T02:33:09.896Z,56.09
2022-10-18T02:33:40.344Z,56.20
2022-10-18T02:34:10.763Z,56.20
2022-10-18T02:34:41.194Z,56.09
2022-10-18T02:35:11.620Z,56.20
2022-10-18T02:35:42.051Z,56.09
2022-10-18T02:36:12.481Z,56.59
2022-10-18T02:36:42.926Z,56.29
2022-10-18T02:37:13.404Z,56.09
2022-10-18T02:37:43.777Z,56.20
2022-10-18T02:38:14.217Z,56.09
2022-10-18T02:38:44.727Z,56.20
2022-10-18T02:39:15.090Z,56.09
2022-10-18T02:39:45.556Z,56.09
2022-10-18T02:40:15.978Z,56.09
2022-10-18T02:40:46.426Z,56.09
2022-10-18T02:41:16.860Z,56.20
2022-10-18T02:41:47.273Z,56.29
2022-10-18T02:42:17.698Z,56.29
2022-10-18T02:42:48.136Z,56.09
2022-10-18T02:43:18.554Z,56.09
2022-10-18T02:43:48.985Z,56.09
2022-10-18T02:44:19.436Z,56.20
2022-10-18T02:44:49.865Z,56.09
2022-10-18T02:45:20.290Z,56.09
2022-10-18T02:45:50.714Z,56.09
2022-10-18T02:46:21.244Z,56.09
2022-10-18T02:46:51.651Z,56.09
2022-10-18T02:47:22.075Z,56.09
2022-10-18T02:47:52.520Z,56.09
2022-10-18T02:48:22.975Z,56.09
2022-10-18T02:48:53.401Z,56.09
2022-10-18T02:49:23.821Z,56.09
2022-10-18T02:49:54.240Z,56.09
2022-10-18T02:50:24.671Z,56.20
2022-10-18T02:50:55.094Z,56.29
2022-10-18T02:51:25.516Z,56.29
2022-10-18T02:51:55.939Z,56.09
2022-10-18T02:52:26.357Z,56.09
2022-10-18T02:52:56.778Z,56.09
2022-10-18T02:53:27.235Z,56.20
2022-10-18T02:53:57.651Z,56.09
2022-10-18T02:54:28.063Z,56.09
2022-10-18T02:54:58.495Z,56.29
2022-10-18T02:55:59.259Z,56.09
2022-10-18T02:56:29.680Z,56.09
2022-10-18T02:57:00.113Z,56.09
2022-10-18T02:57:30.820Z,56.09
2022-10-18T02:58:01.424Z,56.20
2022-10-18T02:58:31.837Z,56.20
2022-10-18T02:59:02.273Z,56.20
2022-10-18T02:59:32.685Z,56.09
2022-10-18T03:00:03.123Z,56.09
2022-10-18T03:00:33.565Z,56.20
2022-10-18T03:01:03.987Z,56.29
2022-10-18T03:01:34.459Z,56.20
2022-10-18T03:02:04.861Z,56.20
2022-10-18T03:02:35.289Z,56.20
2022-10-18T03:03:05.725Z,56.20
2022-10-18T03:03:36.161Z,56.29
2022-10-18T03:04:06.583Z,56.20
2022-10-18T03:04:37.017Z,56.09
2022-10-18T03:05:07.434Z,56.20
2022-10-18T03:05:37.854Z,56.09
2022-10-18T03:06:08.277Z,56.09
2022-10-18T03:06:38.704Z,56.09
2022-10-18T03:07:09.125Z,56.09
2022-10-18T03:07:39.554Z,56.09
2022-10-18T03:08:09.981Z,56.09
2022-10-18T03:08:40.418Z,56.09
2022-10-18T03:09:10.839Z,56.09
2022-10-18T03:09:41.262Z,56.09
2022-10-18T03:10:11.697Z,56.09
2022-10-18T03:10:42.119Z,56.09
2022-10-18T03:11:12.546Z,56.09
2022-10-18T03:11:42.969Z,56.09
2022-10-18T03:12:13.386Z,56.09
2022-10-18T03:12:43.807Z,56.09
2022-10-18T03:13:14.259Z,56.09
2022-10-18T03:13:44.659Z,56.20
2022-10-18T03:14:15.084Z,56.20
2022-10-18T03:14:45.527Z,56.20
2022-10-18T03:15:15.956Z,56.09
2022-10-18T03:15:46.370Z,56.20
2022-10-18T03:16:16.792Z,56.20
2022-10-18T03:16:47.225Z,56.09
2022-10-18T03:17:17.649Z,56.09
2022-10-18T03:17:48.084Z,56.09
2022-10-18T03:18:18.511Z,56.09
2022-10-18T03:18:48.950Z,56.20
2022-10-18T03:19:19.375Z,56.20
2022-10-18T03:19:49.796Z,56.29
2022-10-18T03:20:20.222Z,56.20
2022-10-18T03:20:50.641Z,56.20
2022-10-18T03:21:21.078Z,56.20
2022-10-18T03:21:51.520Z,56.09
2022-10-18T03:22:22.010Z,56.20
2022-10-18T03:22:52.368Z,56.09
2022-10-18T03:23:22.787Z,56.20
2022-10-18T03:23:53.227Z,56.09
2022-10-18T03:24:23.650Z,56.09
2022-10-18T03:24:54.072Z,55.99
2022-10-18T03:25:24.507Z,56.09
2022-10-18T03:25:54.931Z,56.20
2022-10-18T03:26:25.358Z,56.39
2022-10-18T03:26:55.780Z,56.39
2022-10-18T03:27:26.204Z,56.49
2022-10-18T03:27:56.625Z,56.29
2022-10-18T03:28:27.137Z,56.20
2022-10-18T03:28:57.562Z,56.20
2022-10-18T03:29:27.994Z,56.20
2022-10-18T03:29:58.426Z,56.20
2022-10-18T03:30:28.859Z,56.20
2022-10-18T03:30:59.292Z,56.20
2022-10-18T03:32:01.073Z,56.29
2022-10-18T03:32:31.843Z,56.20
2022-10-18T03:33:02.381Z,56.20
2022-10-18T03:33:32.802Z,56.29
2022-10-18T03:34:03.232Z,56.29
2022-10-18T03:34:33.679Z,56.29
2022-10-18T03:35:04.111Z,56.29
2022-10-18T03:35:34.537Z,56.20
2022-10-18T03:36:04.967Z,56.20
2022-10-18T03:36:35.382Z,56.20
2022-10-18T03:37:05.805Z,56.29
2022-10-18T03:37:36.225Z,56.20
2022-10-18T03:38:06.647Z,56.29
2022-10-18T03:38:37.079Z,56.29
2022-10-18T03:39:07.513Z,56.20
2022-10-18T03:39:37.936Z,56.49
2022-10-18T03:40:08.364Z,56.39
2022-10-18T03:40:38.790Z,56.29
2022-10-18T03:41:09.217Z,56.29
2022-10-18T03:41:39.640Z,56.49
2022-10-18T03:42:10.089Z,56.39
2022-10-18T03:42:40.532Z,56.39
2022-10-18T03:43:10.945Z,56.29
2022-10-18T03:43:41.396Z,56.29
2022-10-18T03:44:11.810Z,56.39
2022-10-18T03:44:42.245Z,56.29
2022-10-18T03:45:12.675Z,56.39
2022-10-18T03:45:43.098Z,56.20
2022-10-18T03:46:13.520Z,56.20
2022-10-18T03:46:43.946Z,56.20
2022-10-18T03:47:14.368Z,56.20
2022-10-18T03:47:44.801Z,56.29
2022-10-18T03:48:15.237Z,56.20
2022-10-18T03:48:45.655Z,56.29
2022-10-18T03:49:16.097Z,56.20
2022-10-18T03:49:46.531Z,56.29
2022-10-18T03:50:16.944Z,56.20
2022-10-18T03:50:47.367Z,56.29
2022-10-18T03:51:17.793Z,56.20
2022-10-18T03:51:48.231Z,56.29
2022-10-18T03:52:18.659Z,56.29
2022-10-18T03:52:49.088Z,56.29
2022-10-18T03:53:19.504Z,56.20
2022-10-18T03:53:49.931Z,56.20
2022-10-18T03:54:20.382Z,56.29
2022-10-18T03:54:50.809Z,56.29
2022-10-18T03:55:21.226Z,56.29
2022-10-18T03:55:51.647Z,56.39
2022-10-18T03:56:22.072Z,56.70
2022-10-18T03:56:52.492Z,56.49
2022-10-18T03:57:22.927Z,56.29
2022-10-18T03:57:53.353Z,56.29
2022-10-18T03:58:23.890Z,56.20
2022-10-18T03:58:54.276Z,56.20
2022-10-18T03:59:24.691Z,56.29
2022-10-18T03:59:55.114Z,56.29
2022-10-18T04:00:25.534Z,56.29
2022-10-18T04:00:55.958Z,56.39
2022-10-18T04:01:26.501Z,56.29
2022-10-18T04:01:57.016Z,56.29
2022-10-18T04:02:27.401Z,56.79
2022-10-18T04:02:57.825Z,56.39
2022-10-18T04:03:28.243Z,56.29
2022-10-18T04:03:58.668Z,56.29
2022-10-18T04:04:29.103Z,56.29
2022-10-18T04:04:59.525Z,56.49
2022-10-18T04:05:29.946Z,56.29
2022-10-18T04:06:00.366Z,56.29
2022-10-18T04:06:30.787Z,56.59
2022-10-18T04:07:01.207Z,56.49
2022-10-18T04:07:31.653Z,56.49
2022-10-18T04:08:02.072Z,56.29
2022-10-18T04:08:32.518Z,56.49
2022-10-18T04:09:05.289Z,56.59
2022-10-18T04:09:38.288Z,56.39
2022-10-18T04:10:08.731Z,56.39
2022-10-18T04:10:39.157Z,56.39
2022-10-18T04:11:09.586Z,56.39
2022-10-18T04:11:40.008Z,56.29
2022-10-18T04:12:10.449Z,56.29
2022-10-18T04:12:40.872Z,56.29
2022-10-18T04:13:11.310Z,56.29
2022-10-18T04:13:41.733Z,56.39
2022-10-18T04:14:12.176Z,56.39
2022-10-18T04:14:42.611Z,56.39
2022-10-18T04:15:13.036Z,56.39
2022-10-18T04:15:43.477Z,56.39
2022-10-18T04:16:13.896Z,56.39
2022-10-18T04:16:44.320Z,56.39
2022-10-18T04:17:14.743Z,56.59
2022-10-18T04:17:45.165Z,56.29
2022-10-18T04:18:15.599Z,56.49
2022-10-18T04:18:46.029Z,56.49
2022-10-18T04:19:16.463Z,56.39
2022-10-18T04:19:46.896Z,56.39
2022-10-18T04:20:17.317Z,56.29
2022-10-18T04:20:47.751Z,56.59
2022-10-18T04:21:18.169Z,56.49
2022-10-18T04:21:48.611Z,56.89
2022-10-18T04:22:19.041Z,56.70
2022-10-18T04:22:49.472Z,56.59
2022-10-18T04:23:19.898Z,56.59
2022-10-18T04:23:50.324Z,56.70
2022-10-18T04:24:20.745Z,56.49
2022-10-18T04:24:51.187Z,56.49
2022-10-18T04:25:21.642Z,56.59
2022-10-18T04:25:52.082Z,56.49
2022-10-18T04:26:22.512Z,56.39
2022-10-18T04:26:52.934Z,56.29
2022-10-18T04:27:23.356Z,56.39
2022-10-18T04:27:53.791Z,56.39
2022-10-18T04:28:24.258Z,56.39
2022-10-18T04:28:54.692Z,56.39
2022-10-18T04:29:25.102Z,56.49
2022-10-18T04:29:55.545Z,56.39
2022-10-18T04:30:25.989Z,56.39
2022-10-18T04:30:56.419Z,56.39
2022-10-18T04:31:26.833Z,56.39
2022-10-18T04:31:57.250Z,56.39
2022-10-18T04:32:27.673Z,56.39
2022-10-18T04:32:58.094Z,56.39
2022-10-18T04:33:28.518Z,56.39
2022-10-18T04:33:58.941Z,56.39
2022-10-18T04:34:29.442Z,56.39
2022-10-18T04:34:59.865Z,56.39
2022-10-18T04:35:30.289Z,56.49
2022-10-18T04:36:00.711Z,56.49
2022-10-18T04:36:31.136Z,56.49
2022-10-18T04:37:01.571Z,56.49
2022-10-18T04:37:32.301Z,56.49
2022-10-18T04:38:02.834Z,56.49
2022-10-18T04:38:33.250Z,56.49
2022-10-18T04:39:03.670Z,56.59
2022-10-18T04:39:34.105Z,56.59
2022-10-18T04:40:04.533Z,56.79
2022-10-18T04:40:34.956Z,56.59
2022-10-18T04:41:05.383Z,56.70
2022-10-18T04:41:35.809Z,56.79
2022-10-18T04:42:06.236Z,56.59
2022-10-18T04:42:36.657Z,56.59
2022-10-18T04:43:07.083Z,56.89
2022-10-18T04:43:37.570Z,56.89
2022-10-18T04:44:07.949Z,56.89
2022-10-18T04:44:38.374Z,56.70
2022-10-18T04:45:08.812Z,56.59
2022-10-18T04:45:39.253Z,56.59
2022-10-18T04:46:09.660Z,56.59
2022-10-18T04:46:40.097Z,56.70
2022-10-18T04:47:10.527Z,56.70
2022-10-18T04:47:40.959Z,56.59
2022-10-18T04:48:11.375Z,56.59
2022-10-18T04:48:41.811Z,56.59
2022-10-18T04:49:12.231Z,56.59
2022-10-18T04:49:42.663Z,56.59
2022-10-18T04:50:13.127Z,56.59
2022-10-18T04:50:43.546Z,56.59
2022-10-18T04:51:13.970Z,56.59
2022-10-18T04:51:44.408Z,56.59
2022-10-18T04:52:14.853Z,56.70
2022-10-18T04:52:45.377Z,56.79
2022-10-18T04:53:15.784Z,56.70
2022-10-18T04:53:46.204Z,56.89
2022-10-18T04:54:16.617Z,56.59
2022-10-18T04:54:47.042Z,56.59
2022-10-18T04:55:17.486Z,56.59
2022-10-18T04:55:47.908Z,56.49
2022-10-18T04:56:18.338Z,56.59
2022-10-18T04:56:48.769Z,56.59
2022-10-18T04:57:19.193Z,56.59
2022-10-18T04:57:49.621Z,56.70
2022-10-18T04:58:20.045Z,56.70
2022-10-18T04:58:50.471Z,56.70
2022-10-18T04:59:20.891Z,56.70
2022-10-18T04:59:51.311Z,56.70
2022-10-18T05:00:21.766Z,56.70
2022-10-18T05:00:52.225Z,56.70
2022-10-18T05:01:22.657Z,56.70
2022-10-18T05:01:53.141Z,56.70
2022-10-18T05:02:23.553Z,56.70
2022-10-18T05:02:53.986Z,56.70
2022-10-18T05:03:24.410Z,56.70
2022-10-18T05:03:54.831Z,56.70
2022-10-18T05:04:25.253Z,56.70
2022-10-18T05:04:55.675Z,56.70
2022-10-18T05:05:43.272Z,56.70
2022-10-18T05:06:03.180Z,56.70
2022-10-18T05:06:33.915Z,56.70
2022-10-18T05:07:04.344Z,56.70
2022-10-18T05:07:34.763Z,56.70
2022-10-18T05:08:05.184Z,56.70
2022-10-18T05:08:35.605Z,56.70
2022-10-18T05:09:06.030Z,56.70
2022-10-18T05:09:36.456Z,56.70
2022-10-18T05:10:06.873Z,56.70
2022-10-18T05:10:37.314Z,56.70
2022-10-18T05:11:07.750Z,56.70
2022-10-18T05:11:38.172Z,56.70
2022-10-18T05:12:08.610Z,56.70
2022-10-18T05:12:39.044Z,56.70
2022-10-18T05:13:09.503Z,56.70
2022-10-18T05:13:39.883Z,56.70
2022-10-18T05:14:10.314Z,56.70
2022-10-18T05:14:40.739Z,56.79
2022-10-18T05:15:11.164Z,56.70
2022-10-18T05:15:41.605Z,56.70
2022-10-18T05:16:12.048Z,56.70
2022-10-18T05:16:42.460Z,56.70
2022-10-18T05:17:12.884Z,56.70
2022-10-18T05:17:43.312Z,56.70
2022-10-18T05:18:13.733Z,56.89
2022-10-18T05:18:44.169Z,56.70
2022-10-18T05:19:14.578Z,56.70
2022-10-18T05:19:45.005Z,56.70
2022-10-18T05:20:15.444Z,56.70
2022-10-18T05:20:45.884Z,56.70
2022-10-18T05:21:16.313Z,56.70
2022-10-18T05:21:46.728Z,56.70
2022-10-18T05:22:17.151Z,56.70
2022-10-18T05:22:47.573Z,56.70
2022-10-18T05:23:17.994Z,56.70
2022-10-18T05:23:48.429Z,56.70
2022-10-18T05:24:20.249Z,56.70
2022-10-18T05:24:52.286Z,56.70
2022-10-18T05:25:22.712Z,56.70
2022-10-18T05:25:53.159Z,56.70
2022-10-18T05:26:23.600Z,56.70
2022-10-18T05:26:54.023Z,56.89
2022-10-18T05:27:24.446Z,56.70
2022-10-18T05:27:54.870Z,56.70
2022-10-18T05:28:41.448Z,56.70
2022-10-18T05:29:00.789Z,56.70
2022-10-18T05:29:31.270Z,56.70
2022-10-18T05:30:04.719Z,56.70
2022-10-18T05:30:36.215Z,56.70
2022-10-18T05:31:06.670Z,56.70
2022-10-18T05:31:37.116Z,56.70
2022-10-18T05:32:07.512Z,56.70
2022-10-18T05:32:37.952Z,56.70
2022-10-18T05:33:08.363Z,56.70
2022-10-18T05:33:38.791Z,56.70
2022-10-18T05:34:09.232Z,56.70
2022-10-18T05:34:39.658Z,56.70
2022-10-18T05:35:10.107Z,56.70
2022-10-18T05:35:40.593Z,56.70
2022-10-18T05:36:11.073Z,56.70
2022-10-18T05:36:41.494Z,56.79
2022-10-18T05:37:11.917Z,56.70
2022-10-18T05:37:42.339Z,56.79
2022-10-18T05:38:12.762Z,56.79
2022-10-18T05:38:43.472Z,56.89
2022-10-18T05:39:13.950Z,56.70
2022-10-18T05:39:44.381Z,56.70
2022-10-18T05:40:14.808Z,56.70
2022-10-18T05:40:45.234Z,56.70
2022-10-18T05:41:15.696Z,56.70
2022-10-18T05:41:46.122Z,56.70
2022-10-18T05:42:16.557Z,56.70
2022-10-18T05:42:46.969Z,56.70
2022-10-18T05:43:17.392Z,56.70
2022-10-18T05:43:47.815Z,56.70
2022-10-18T05:44:18.238Z,56.70
2022-10-18T05:44:48.690Z,56.70
2022-10-18T05:45:19.145Z,56.70
2022-10-18T05:45:49.542Z,56.70
2022-10-18T05:46:20.001Z,56.70
2022-10-18T05:46:50.452Z,56.70
2022-10-18T05:47:20.849Z,56.70
2022-10-18T05:47:51.281Z,56.79
2022-10-18T05:48:21.755Z,56.70
2022-10-18T05:48:52.179Z,56.70
2022-10-18T05:49:22.606Z,56.70
2022-10-18T05:49:53.049Z,56.70
2022-10-18T05:50:23.477Z,56.70
2022-10-18T05:50:53.902Z,56.70
2022-10-18T05:51:24.366Z,56.70
2022-10-18T05:51:54.774Z,56.79
2022-10-18T05:52:25.200Z,56.70
2022-10-18T05:53:02.658Z,56.70
2022-10-18T05:53:36.593Z,56.70
2022-10-18T05:54:06.283Z,56.70
2022-10-18T05:54:36.729Z,56.70
2022-10-18T05:55:07.154Z,56.70
2022-10-18T05:55:37.582Z,56.70
2022-10-18T05:56:08.043Z,56.70
2022-10-18T05:57:08.841Z,56.70
2022-10-18T05:57:39.265Z,56.70
2022-10-18T05:58:09.683Z,56.70
2022-10-18T05:58:40.112Z,56.70
2022-10-18T05:59:10.536Z,56.70
2022-10-18T05:59:40.959Z,56.70
2022-10-18T06:00:11.385Z,56.79
2022-10-18T06:00:41.824Z,56.70
2022-10-18T06:01:12.251Z,56.59
2022-10-18T06:01:42.703Z,56.70
2022-10-18T06:02:13.216Z,56.70
2022-10-18T06:02:43.685Z,56.70
2022-10-18T06:03:14.065Z,56.70
2022-10-18T06:03:44.487Z,56.70
2022-10-18T06:04:14.912Z,56.70
2022-10-18T06:04:45.339Z,56.70
2022-10-18T06:05:15.771Z,56.79
2022-10-18T06:05:46.203Z,56.79
2022-10-18T06:06:16.835Z,56.79
2022-10-18T06:06:47.293Z,56.79
2022-10-18T06:07:17.703Z,56.70
2022-10-18T06:07:48.125Z,56.70
2022-10-18T06:08:18.560Z,56.79
2022-10-18T06:08:48.982Z,56.79
2022-10-18T06:09:19.561Z,56.79
2022-10-18T06:09:49.984Z,56.79
2022-10-18T06:10:20.419Z,56.79
2022-10-18T06:10:50.843Z,56.70
2022-10-18T06:11:21.269Z,56.79
2022-10-18T06:11:51.714Z,56.79
2022-10-18T06:12:22.138Z,56.79
2022-10-18T06:12:52.562Z,56.79
2022-10-18T06:13:22.977Z,56.79
2022-10-18T06:13:53.411Z,56.79
2022-10-18T06:14:23.834Z,56.79
2022-10-18T06:14:54.271Z,56.79
2022-10-18T06:15:24.694Z,56.79
2022-10-18T06:15:55.139Z,56.79
2022-10-18T06:16:31.272Z,56.79
2022-10-18T06:17:00.931Z,56.79
2022-10-18T06:17:32.596Z,56.79
2022-10-18T06:18:03.116Z,56.79
2022-10-18T06:18:33.586Z,56.79
2022-10-18T06:19:04.006Z,56.79
2022-10-18T06:19:34.430Z,56.79
2022-10-18T06:20:04.853Z,56.79
2022-10-18T06:20:35.349Z,56.79
2022-10-18T06:21:05.751Z,56.79
2022-10-18T06:21:36.172Z,56.79
2022-10-18T06:22:06.628Z,56.79
2022-10-18T06:22:37.052Z,56.79
2022-10-18T06:23:07.476Z,56.79
2022-10-18T06:23:37.915Z,56.79
2022-10-18T06:24:08.358Z,56.79
2022-10-18T06:24:38.782Z,56.79
2022-10-18T06:25:09.214Z,56.79
2022-10-18T06:25:39.639Z,56.79
2022-10-18T06:26:10.058Z,56.70
2022-10-18T06:26:40.504Z,56.79
2022-10-18T06:27:10.983Z,56.79
2022-10-18T06:27:41.474Z,56.79
2022-10-18T06:28:12.391Z,56.79
2022-10-18T06:28:42.857Z,56.70
2022-10-18T06:29:13.359Z,56.70
2022-10-18T06:29:43.761Z,56.79
2022-10-18T06:30:14.232Z,56.79
2022-10-18T06:30:44.653Z,56.79
2022-10-18T06:31:15.361Z,56.70
2022-10-18T06:31:45.776Z,56.79
2022-10-18T06:32:16.224Z,56.70
2022-10-18T06:32:46.695Z,56.79
2022-10-18T06:33:17.099Z,56.79
2022-10-18T06:33:47.528Z,56.79
2022-10-18T06:34:17.966Z,56.70
2022-10-18T06:34:48.385Z,56.70